Time;durP1;ratioP1;P1;durP2;ratioP2;P2;SDS_P1;SDS_P2;PMS_P1;PMS_P2;Temp;Humidity;BMP_temperature;BMP_pressure;BME280_temperature;BME280_humidity;BME280_pressure;Samples;Min_cycle;Max_cycle;Signal;HPM_P1;HPM_P2
2024/04/17 00:00:00;;;;;;;2.60;1.30;;;6.90;84.50;;;8.50;60.47;96718.38;5432632;26;20043;-39
2024/04/17 00:02:31;;;;;;;1.43;1.20;;;6.90;84.80;;;8.57;60.17;96725.47;5449324;26;20038;-39
2024/04/17 00:04:58;;;;;;;1.30;1.20;;;6.90;85.00;;;8.57;60.37;96721.97;5448768;26;20040;-39
2024/04/17 00:07:26;;;;;;;1.27;1.13;;;6.90;85.20;;;8.59;60.12;96715.50;5447560;26;20027;-39
2024/04/17 00:09:54;;;;;;;1.20;1.10;;;6.90;85.50;;;8.45;60.75;96721.50;5449051;26;20373;-39
2024/04/17 00:12:22;;;;;;;1.60;1.40;;;6.80;86.10;;;8.57;60.30;96720.16;5449107;26;20470;-39
2024/04/17 00:14:49;;;;;;;3.57;1.60;;;6.90;85.70;;;8.63;60.02;96726.63;5448381;26;20332;-39
2024/04/17 00:17:17;;;;;;;1.67;1.50;;;6.90;86.00;;;8.64;60.33;96717.66;5447189;26;20026;-39
2024/04/17 00:19:45;;;;;;;2.27;1.70;;;7.00;85.50;;;8.36;61.39;96717.22;5447874;26;20065;-39
2024/04/17 00:22:13;;;;;;;2.33;1.70;;;6.80;86.10;;;8.38;61.12;96715.22;5447626;26;20373;-39
2024/04/17 00:24:41;;;;;;;2.10;1.77;;;6.70;86.80;;;8.27;61.46;96716.41;5447849;26;20023;-39
2024/04/17 00:27:08;;;;;;;3.23;2.70;;;6.70;87.10;;;8.19;62.12;96716.41;5434704;26;20046;-39
2024/04/17 00:29:36;;;;;;;2.70;2.03;;;6.60;87.80;;;8.03;62.92;96707.50;5448695;26;20035;-38
2024/04/17 00:32:06;;;;;;;3.10;2.47;;;6.50;89.20;;;8.06;62.61;96723.09;5448857;26;20034;-38
2024/04/17 00:34:34;;;;;;;2.53;2.33;;;6.50;90.50;;;8.12;62.80;96720.72;5386739;26;20047;-38
2024/04/17 00:37:02;;;;;;;2.70;2.33;;;6.50;90.00;;;7.92;63.34;96730.88;5448510;26;20047;-39
2024/04/17 00:39:30;;;;;;;3.00;2.50;;;6.50;90.00;;;7.81;63.52;96724.94;5448520;26;20043;-38
2024/04/17 00:41:58;;;;;;;3.43;2.67;;;6.40;91.50;;;7.92;63.32;96721.09;5447289;26;20075;-39
2024/04/17 00:44:26;;;;;;;4.37;2.47;;;6.50;91.20;;;7.95;63.49;96719.91;5448074;26;20490;-39
2024/04/17 00:46:55;;;;;;;3.03;2.40;;;6.50;91.10;;;7.96;63.76;96716.28;5415543;26;20043;-39
2024/04/17 00:49:22;;;;;;;3.07;2.53;;;6.50;90.60;;;7.99;63.61;96718.63;5386223;26;20047;-38
2024/04/17 00:51:51;;;;;;;4.40;2.50;;;6.50;91.00;;;7.97;63.74;96723.22;5447802;26;20105;-38
2024/04/17 00:54:19;;;;;;;2.97;2.20;;;6.50;91.10;;;8.01;63.35;96725.41;5447795;26;20038;-38
2024/04/17 00:56:47;;;;;;;3.10;2.50;;;6.50;91.50;;;7.88;64.30;96727.72;5447211;26;20027;-38
2024/04/17 00:59:16;;;;;;;2.97;2.60;;;6.40;92.50;;;7.93;63.98;96724.56;5448653;26;20035;-38
2024/04/17 01:01:43;;;;;;;3.53;2.63;;;6.40;92.60;;;7.99;64.27;96722.09;5448357;26;20429;-38
2024/04/17 01:04:11;;;;;;;3.90;2.77;;;6.50;93.20;;;8.00;63.41;96713.13;5449160;26;20031;-38
2024/04/17 01:06:41;;;;;;;3.33;2.57;;;6.50;94.20;;;7.97;64.38;96713.47;5419292;26;20053;-38
2024/04/17 01:09:09;;;;;;;4.50;3.20;;;6.40;95.10;;;7.81;64.96;96711.69;5420776;26;20034;-38
2024/04/17 01:11:39;;;;;;;4.87;3.43;;;6.30;96.70;;;7.77;65.19;96702.38;5452042;26;20035;-37
2024/04/17 01:14:08;;;;;;;6.77;3.40;;;6.30;98.60;;;7.77;65.02;96709.50;5417595;26;20031;-37
2024/04/17 01:16:37;;;;;;;4.30;3.33;;;6.30;98.70;;;7.64;66.18;96708.19;5451865;26;20047;-37
2024/04/17 01:19:08;;;;;;;4.57;3.20;;;6.20;99.90;;;7.68;65.93;96721.94;5420002;26;20017;-37
2024/04/17 01:21:36;;;;;;;4.67;3.57;;;6.20;99.90;;;7.67;66.01;96712.31;5421043;26;20034;-37
2024/04/17 01:24:04;;;;;;;6.53;3.87;;;6.20;99.90;;;7.40;67.22;96706.34;5451126;26;20054;-38
2024/04/17 01:26:32;;;;;;;6.53;3.90;;;6.10;99.90;;;7.51;67.49;96707.03;5450350;26;20039;-37
2024/04/17 01:29:00;;;;;;;4.23;3.57;;;6.10;99.90;;;7.49;67.13;96707.19;5451759;26;20026;-37
2024/04/17 01:31:28;;;;;;;4.80;3.83;;;6.10;99.90;;;7.54;67.14;96701.38;5451677;26;20405;-37
2024/04/17 01:33:55;;;;;;;4.80;3.13;;;6.10;99.90;;;7.62;66.54;96706.72;5451463;26;20042;-37
2024/04/17 01:36:23;;;;;;;5.23;3.20;;;6.10;99.90;;;7.63;67.00;96703.88;5418290;26;20038;-38
2024/04/17 01:38:51;;;;;;;7.80;3.70;;;6.10;99.90;;;7.58;67.01;96700.91;5451214;26;20494;-38
2024/04/17 01:41:19;;;;;;;6.10;3.53;;;6.10;99.90;;;7.56;66.73;96689.66;5451268;26;20126;-38
2024/04/17 01:43:46;;;;;;;5.47;3.80;;;6.20;99.90;;;7.57;67.31;96701.88;5450779;26;20047;-37
2024/04/17 01:46:14;;;;;;;5.43;3.77;;;6.10;99.90;;;7.51;67.30;96707.84;5417926;26;20095;-38
2024/04/17 01:48:42;;;;;;;4.83;4.10;;;6.10;99.90;;;7.67;66.86;96696.44;5451432;26;20040;-38
2024/04/17 01:51:10;;;;;;;3.63;3.27;;;6.20;99.90;;;7.71;66.88;96704.88;5451080;26;20433;-38
2024/04/17 01:53:38;;;;;;;5.70;4.10;;;6.20;99.90;;;7.69;67.12;96705.84;5447794;26;20055;-38
2024/04/17 01:56:06;;;;;;;4.57;3.57;;;6.20;99.90;;;7.67;66.71;96702.53;5450118;26;20534;-38
2024/04/17 01:58:33;;;;;;;4.20;3.50;;;6.20;99.90;;;7.61;66.74;96700.56;5451372;26;20035;-38
2024/04/17 02:01:05;;;;;;;4.30;3.50;;;6.20;99.90;;;7.68;67.29;96714.00;5419435;26;20046;-38
2024/04/17 02:03:35;;;;;;;4.40;3.40;;;6.20;99.90;;;7.71;66.84;96711.00;5433427;26;20034;-38
2024/04/17 02:06:04;;;;;;;5.07;3.37;;;6.20;99.90;;;7.85;66.21;96712.16;5447880;26;20031;-38
2024/04/17 02:08:32;;;;;;;5.50;3.87;;;6.30;99.90;;;7.82;66.25;96715.97;5450854;26;20441;-38
2024/04/17 02:10:59;;;;;;;3.93;3.30;;;6.30;99.90;;;7.66;66.40;96711.50;5418524;26;20042;-38
2024/04/17 02:13:27;;;;;;;5.33;3.97;;;6.20;99.90;;;7.76;66.64;96719.28;5451260;26;20042;-38
2024/04/17 02:16:03;;;;;;;4.80;3.53;;;6.20;99.90;;;7.72;66.62;96717.97;5373013;26;20032;-39
2024/04/17 02:18:31;;;;;;;6.83;3.60;;;6.20;99.90;;;7.76;66.22;96718.47;5418510;26;20370;-38
2024/04/17 02:21:01;;;;;;;3.70;3.00;;;6.20;99.90;;;7.81;66.14;96721.41;5417799;26;20029;-38
2024/04/17 02:23:30;;;;;;;5.43;3.60;;;6.20;99.90;;;7.81;66.37;96716.13;5419239;26;20034;-38
2024/04/17 02:25:57;;;;;;;5.00;3.07;;;6.20;99.90;;;7.75;66.24;96722.09;5450278;26;20035;-38
2024/04/17 02:28:25;;;;;;;3.00;2.50;;;6.10;99.90;;;7.82;66.01;96728.38;5449369;26;20074;-38
2024/04/17 02:30:53;;;;;;;4.03;3.33;;;6.20;99.90;;;7.83;65.95;96722.94;5448865;26;20271;-38
2024/04/17 02:33:20;;;;;;;2.80;2.10;;;6.20;99.90;;;7.48;67.19;96727.56;5449461;26;20034;-38
2024/04/17 02:35:48;;;;;;;4.40;2.60;;;6.00;99.90;;;7.55;66.47;96719.78;5416952;26;20046;-38
2024/04/17 02:38:17;;;;;;;2.97;2.30;;;6.00;99.90;;;7.54;66.81;96714.63;5450455;26;20071;-38
2024/04/17 02:40:44;;;;;;;3.43;2.93;;;6.00;99.90;;;7.43;66.87;96729.88;5450577;26;20043;-38
2024/04/17 02:43:12;;;;;;;3.67;2.90;;;5.90;99.90;;;7.38;67.04;96726.03;5450555;26;20487;-38
2024/04/17 02:45:40;;;;;;;4.07;2.63;;;5.80;99.90;;;7.42;67.13;96722.06;5450127;26;20034;-38
2024/04/17 02:48:08;;;;;;;3.00;2.40;;;5.90;99.90;;;7.42;66.70;96730.03;5449022;26;20043;-38
2024/04/17 02:50:42;;;;;;;4.47;2.77;;;5.90;99.90;;;7.41;66.69;96731.84;5450709;26;20039;-38
2024/04/17 02:53:10;;;;;;;;;;;5.80;99.90;;;7.34;67.18;96730.00;5449081;26;20490;-38
2024/04/17 02:55:37;;;;;;;5.27;3.10;;;5.90;99.90;;;7.45;66.64;96732.34;5444962;26;19952;-38
2024/04/17 02:58:05;;;;;;;3.40;3.03;;;5.80;99.90;;;7.47;66.30;96723.25;5450359;26;20023;-38
2024/04/17 03:00:33;;;;;;;5.43;3.47;;;5.90;99.90;;;7.46;66.63;96726.91;5418302;26;20007;-38
2024/04/17 03:03:04;;;;;;;4.37;3.43;;;5.90;99.90;;;7.55;66.34;96733.00;5418701;26;20046;-38
2024/04/17 03:05:35;;;;;;;4.27;3.60;;;5.90;99.90;;;7.63;66.14;96732.19;5449827;26;20027;-38
2024/04/17 03:08:04;;;;;;;4.17;3.10;;;5.90;99.90;;;7.55;66.35;96738.31;5450416;26;20078;-38
2024/04/17 03:10:31;;;;;;;4.57;3.43;;;5.90;99.90;;;7.60;66.53;96732.50;5449821;26;20043;-38
2024/04/17 03:12:59;;;;;;;5.70;3.27;;;5.90;99.90;;;7.62;66.47;96738.50;5418538;26;20050;-38
2024/04/17 03:15:27;;;;;;;4.53;3.43;;;5.90;99.90;;;7.52;66.67;96738.63;5418016;26;20463;-38
2024/04/17 03:17:56;;;;;;;4.40;3.50;;;5.90;99.90;;;7.52;66.68;96743.94;5448450;26;20035;-38
2024/04/17 03:20:24;;;;;;;4.53;3.43;;;5.80;99.90;;;7.50;67.05;96751.22;5419109;26;20032;-38
2024/04/17 03:22:52;;;;;;;3.47;3.10;;;5.90;99.90;;;7.45;67.05;96745.59;5443208;26;20038;-38
2024/04/17 03:25:20;;;;;;;3.37;2.60;;;5.80;99.90;;;7.51;67.10;96747.59;5434428;26;20350;-38
2024/04/17 03:27:48;;;;;;;3.20;2.63;;;5.80;99.90;;;7.63;66.88;96754.22;5448829;26;20038;-38
2024/04/17 03:30:16;;;;;;;4.07;2.70;;;5.80;99.90;;;7.65;66.66;96746.09;5450117;26;20052;-38
2024/04/17 03:32:43;;;;;;;3.77;3.00;;;5.90;99.90;;;7.68;66.80;96751.91;5449898;26;20478;-38
2024/04/17 03:35:11;;;;;;;6.10;3.87;;;5.90;99.90;;;7.66;66.29;96756.53;5417116;26;20483;-38
2024/04/17 03:37:39;;;;;;;4.10;3.13;;;5.90;99.90;;;7.71;66.52;96747.25;5449901;26;20047;-38
2024/04/17 03:40:08;;;;;;;5.33;2.77;;;5.90;99.90;;;7.75;66.30;96762.66;5449035;26;20047;-38
2024/04/17 03:42:36;;;;;;;4.30;3.13;;;5.90;99.90;;;7.77;66.26;96758.00;5416710;26;20098;-38
2024/04/17 03:45:04;;;;;;;5.03;3.13;;;5.90;99.90;;;7.81;66.45;96753.22;5417497;26;20038;-38
2024/04/17 03:47:32;;;;;;;4.13;3.47;;;6.00;99.90;;;7.87;65.97;96760.50;5449652;26;20043;-38
2024/04/17 03:50:04;;;;;;;3.63;3.00;;;6.00;99.90;;;7.89;66.06;96756.72;5449742;26;20035;-39
2024/04/17 03:52:32;;;;;;;4.53;3.90;;;6.00;99.90;;;7.88;65.98;96760.34;5449770;26;20043;-39
2024/04/17 03:55:00;;;;;;;4.90;3.73;;;6.00;99.90;;;7.92;66.01;96773.28;5449212;26;20031;-39
2024/04/17 03:57:28;;;;;;;6.37;3.90;;;6.00;99.90;;;7.94;65.64;96763.34;5448660;26;20351;-39
2024/04/17 03:59:56;;;;;;;6.87;4.90;;;6.00;99.90;;;7.96;65.82;96764.00;5417552;26;20017;-40
2024/04/17 04:02:24;;;;;;;6.87;4.60;;;6.00;99.90;;;7.94;65.87;96768.63;5434928;26;20034;-40
2024/04/17 04:04:52;;;;;;;6.60;4.27;;;6.00;99.90;;;7.99;65.50;96766.31;5448828;26;20043;-39
2024/04/17 04:07:19;;;;;;;5.13;4.03;;;6.10;99.90;;;7.99;65.55;96767.16;5449014;26;20039;-40
2024/04/17 04:09:49;;;;;;;6.23;4.13;;;6.10;99.90;;;8.00;65.66;96774.09;5449466;26;20031;-39
2024/04/17 04:12:16;;;;;;;6.57;5.10;;;6.10;99.90;;;8.06;65.46;96768.16;5417719;26;20031;-39
2024/04/17 04:14:45;;;;;;;6.63;4.63;;;6.20;99.90;;;8.04;65.45;96772.75;5447864;26;20030;-37
2024/04/17 04:17:15;;;;;;;6.17;4.53;;;6.10;99.90;;;8.07;65.55;96767.13;5449053;26;20039;-37
2024/04/17 04:19:43;;;;;;;6.93;4.80;;;6.10;99.90;;;8.08;65.36;96765.31;5448900;26;20030;-39
2024/04/17 04:22:11;;;;;;;6.97;5.13;;;6.10;99.90;;;8.09;65.39;96769.63;5448710;26;20573;-38
2024/04/17 04:24:41;;;;;;;6.30;4.60;;;6.10;99.90;;;8.13;65.54;96770.13;5447412;26;20038;-38
2024/04/17 04:27:10;;;;;;;6.87;4.60;;;6.20;99.90;;;8.15;65.36;96776.91;5449147;26;20039;-38
2024/04/17 04:29:38;;;;;;;6.93;4.57;;;6.20;99.90;;;8.16;65.35;96777.72;5448131;26;20070;-39
2024/04/17 04:32:06;;;;;;;7.07;4.67;;;6.20;99.90;;;8.07;65.58;96777.75;5416988;26;20038;-38
2024/04/17 04:34:34;;;;;;;6.73;4.73;;;6.10;99.90;;;8.01;65.67;96780.25;5417128;26;20047;-39
2024/04/17 04:37:01;;;;;;;7.63;5.80;;;6.10;99.90;;;8.02;65.69;96780.06;5448472;26;20055;-38
2024/04/17 04:39:29;;;;;;;8.93;6.50;;;6.10;99.90;;;8.11;65.67;96788.84;5418653;26;20487;-39
2024/04/17 04:41:57;;;;;;;7.17;5.47;;;6.20;99.90;;;8.12;65.87;96777.22;5452242;26;20035;-39
2024/04/17 04:44:25;;;;;;;9.17;5.73;;;6.20;99.90;;;8.10;65.55;96784.53;5449628;26;20035;-38
2024/04/17 04:46:56;;;;;;;8.70;5.53;;;6.10;99.90;;;8.12;65.32;96787.84;5377239;26;20047;-38
2024/04/17 04:49:24;;;;;;;8.63;6.07;;;6.10;99.90;;;8.11;65.43;96790.66;5449789;26;20031;-38
2024/04/17 04:51:51;;;;;;;8.87;6.23;;;6.10;99.90;;;8.15;65.61;96798.13;5414085;26;20036;-38
2024/04/17 04:54:19;;;;;;;9.33;6.37;;;6.20;99.90;;;8.17;65.33;96792.66;5450089;26;20039;-38
2024/04/17 04:56:47;;;;;;;9.03;6.33;;;6.20;99.90;;;8.19;65.34;96798.63;5451172;26;20038;-38
2024/04/17 04:59:15;;;;;;;9.23;5.50;;;6.20;99.90;;;8.22;65.58;96800.91;5419729;26;20575;-38
2024/04/17 05:01:43;;;;;;;9.60;6.67;;;6.30;99.90;;;8.18;65.36;96803.09;5451975;26;20034;-38
2024/04/17 05:04:10;;;;;;;10.07;7.50;;;6.20;99.90;;;8.13;65.31;96801.94;5451399;26;20031;-38
2024/04/17 05:06:39;;;;;;;9.73;6.87;;;6.10;99.90;;;8.08;65.62;96805.06;5450850;26;20031;-38
2024/04/17 05:09:07;;;;;;;11.13;7.10;;;6.10;99.90;;;8.06;65.21;96802.59;5451901;26;20034;-38
2024/04/17 05:11:34;;;;;;;10.83;7.23;;;6.10;99.90;;;8.05;65.67;96810.72;5451842;26;20030;-38
2024/04/17 05:14:02;;;;;;;10.53;7.03;;;6.10;99.90;;;7.98;66.03;96807.06;5451239;26;20038;-38
2024/04/17 05:16:30;;;;;;;10.43;7.10;;;6.10;99.90;;;7.89;66.32;96822.97;5437132;26;20039;-38
2024/04/17 05:18:58;;;;;;;11.00;6.47;;;6.00;99.90;;;7.86;65.86;96815.34;5451915;26;20043;-38
2024/04/17 05:21:26;;;;;;;9.57;6.63;;;5.90;99.90;;;7.91;65.93;96820.16;5419086;26;20051;-39
2024/04/17 05:23:54;;;;;;;13.07;7.10;;;6.00;99.90;;;7.97;65.93;96821.28;5451073;26;20060;-38
2024/04/17 05:26:21;;;;;;;9.87;6.90;;;6.00;99.90;;;7.96;65.96;96817.81;5404655;26;20375;-38
2024/04/17 05:28:49;;;;;;;11.83;7.80;;;6.10;99.90;;;8.00;65.77;96823.63;5451250;26;20034;-38
2024/04/17 05:31:17;;;;;;;11.87;7.23;;;6.10;99.90;;;8.01;65.70;96828.78;5451789;26;20039;-38
2024/04/17 05:33:47;;;;;;;11.47;6.53;;;6.10;99.90;;;7.97;66.04;96832.75;5389919;26;20062;-38
2024/04/17 05:36:15;;;;;;;10.63;6.57;;;6.10;99.90;;;7.94;66.18;96833.06;5451620;26;20058;-38
2024/04/17 05:38:43;;;;;;;12.10;7.47;;;6.10;99.90;;;7.87;66.00;96824.09;5449952;26;20054;-38
2024/04/17 05:41:11;;;;;;;9.97;7.63;;;6.00;99.90;;;7.91;65.90;96833.41;5451515;26;20446;-38
2024/04/17 05:43:38;;;;;;;10.07;7.13;;;6.00;99.90;;;7.93;66.11;96836.72;5451699;26;20042;-38
2024/04/17 05:46:07;;;;;;;9.80;6.67;;;6.10;99.90;;;7.96;66.16;96841.69;5449485;26;20367;-38
2024/04/17 05:48:35;;;;;;;10.97;7.30;;;6.10;99.90;;;7.82;66.46;96842.34;5436697;26;20035;-38
2024/04/17 05:51:03;;;;;;;11.50;7.47;;;6.00;99.90;;;7.93;66.34;96844.69;5450375;26;20038;-38
2024/04/17 05:53:30;;;;;;;9.90;5.60;;;6.00;99.90;;;7.79;66.67;96850.59;5451334;26;20037;-38
2024/04/17 05:55:58;;;;;;;10.13;6.73;;;5.90;99.90;;;7.84;66.30;96846.47;5447024;26;20038;-38
2024/04/17 05:58:26;;;;;;;10.87;7.93;;;5.90;99.90;;;7.92;66.43;96847.47;5451411;26;20043;-38
2024/04/17 06:00:54;;;;;;;12.37;7.63;;;6.10;99.90;;;8.02;66.19;96853.44;5417753;26;20026;-38
2024/04/17 06:03:22;;;;;;;9.90;6.80;;;6.10;99.90;;;8.05;66.22;96855.78;5451128;26;20031;-38
2024/04/17 06:05:50;;;;;;;10.07;6.60;;;6.20;99.90;;;8.07;65.81;96851.97;5448486;26;20026;-38
2024/04/17 06:08:17;;;;;;;8.57;7.20;;;6.20;99.90;;;7.91;66.18;96859.91;5450998;26;20030;-38
2024/04/17 06:10:45;;;;;;;8.90;7.20;;;6.00;99.90;;;7.88;66.05;96853.09;5450758;26;20038;-38
2024/04/17 06:13:13;;;;;;;11.03;7.70;;;6.00;99.90;;;7.91;66.03;96862.56;5451016;26;20032;-38
2024/04/17 06:15:41;;;;;;;14.20;7.60;;;6.00;99.90;;;7.87;66.47;96863.84;5450118;26;20047;-38
2024/04/17 06:18:09;;;;;;;11.20;6.77;;;6.00;99.90;;;7.77;66.88;96868.47;5450853;26;20039;-38
2024/04/17 06:20:36;;;;;;;12.63;7.80;;;5.90;99.90;;;7.86;66.35;96871.00;5436573;26;20478;-38
2024/04/17 06:23:04;;;;;;;9.37;6.80;;;6.00;99.90;;;7.98;66.13;96871.50;5450526;26;20030;-38
2024/04/17 06:25:32;;;;;;;9.97;7.00;;;6.10;99.90;;;8.06;66.52;96873.34;5450590;26;20479;-38
2024/04/17 06:28:00;;;;;;;11.87;7.43;;;6.20;99.90;;;8.08;66.23;96872.19;5450305;26;20031;-38
2024/04/17 06:30:28;;;;;;;15.07;6.83;;;6.20;99.90;;;7.90;66.50;96874.16;5451057;26;20038;-38
2024/04/17 06:32:56;;;;;;;10.93;6.93;;;6.00;99.90;;;7.89;66.63;96875.16;5450781;26;20039;-37
2024/04/17 06:35:24;;;;;;;9.17;6.97;;;6.00;99.90;;;7.97;66.27;96884.91;5449954;26;20027;-37
2024/04/17 06:37:52;;;;;;;10.97;7.30;;;6.00;99.90;;;7.99;66.48;96881.13;5448358;26;20043;-37
2024/04/17 06:40:20;;;;;;;11.90;6.70;;;6.10;99.90;;;8.00;66.75;96880.13;5449600;26;20031;-37
2024/04/17 06:42:48;;;;;;;9.10;6.47;;;6.10;99.90;;;7.99;66.36;96880.31;5450545;26;20031;-37
2024/04/17 06:45:16;;;;;;;8.60;6.30;;;6.10;99.90;;;8.04;66.32;96877.97;5449334;26;20039;-37
2024/04/17 06:47:44;;;;;;;9.33;5.63;;;6.10;99.90;;;8.04;66.17;96881.44;5450336;26;20031;-37
2024/04/17 06:50:12;;;;;;;8.83;6.53;;;6.10;99.90;;;8.00;66.26;96887.25;5450327;26;20043;-37
2024/04/17 06:52:40;;;;;;;10.33;7.60;;;6.10;99.90;;;7.98;66.32;96883.94;5433555;26;20030;-37
2024/04/17 06:55:08;;;;;;;9.20;7.00;;;6.00;99.90;;;7.86;66.63;96896.66;5402337;26;20526;-37
2024/04/17 06:57:36;;;;;;;9.00;6.30;;;6.00;99.90;;;7.65;67.09;96894.47;5418845;26;20046;-37
2024/04/17 07:00:06;;;;;;;9.03;5.90;;;5.80;99.90;;;7.59;67.48;96901.22;5449930;26;20445;-37
2024/04/17 07:02:33;;;;;;;10.77;7.80;;;5.80;99.90;;;7.44;68.00;96894.88;5448288;26;20038;-37
2024/04/17 07:05:13;;;;;;;9.07;6.33;;;5.70;99.90;;;7.37;67.99;96896.53;5449967;26;20043;-37
2024/04/17 07:07:40;;;;;;;13.40;7.70;;;5.70;99.90;;;7.56;68.18;96898.91;5403602;26;20034;-38
2024/04/17 07:10:08;;;;;;;10.20;7.37;;;5.80;99.90;;;7.49;68.29;96904.00;5450150;26;20482;-37
2024/04/17 07:12:37;;;;;;;9.20;6.43;;;5.80;99.90;;;7.53;68.17;96895.75;5450198;26;20039;-38
2024/04/17 07:15:05;;;;;;;9.60;6.67;;;5.80;99.90;;;7.68;67.73;96905.56;5449539;26;20046;-37
2024/04/17 07:17:32;;;;;;;9.27;6.10;;;5.90;99.90;;;7.69;67.94;96901.09;5450370;26;20358;-38
2024/04/17 07:20:00;;;;;;;9.50;6.80;;;5.90;99.90;;;7.75;67.92;96911.03;5449934;26;20629;-37
2024/04/17 07:22:29;;;;;;;9.53;5.87;;;5.90;99.90;;;7.78;67.48;96908.06;5449962;26;20035;-37
2024/04/17 07:24:56;;;;;;;9.20;5.70;;;6.00;99.90;;;7.62;67.72;96903.56;5449308;26;20243;-37
2024/04/17 07:27:24;;;;;;;8.37;6.00;;;5.80;99.90;;;7.76;67.52;96903.94;5449719;26;20043;-37
2024/04/17 07:29:52;;;;;;;7.50;5.40;;;5.90;99.90;;;7.78;67.49;96905.44;5449650;26;20043;-38
2024/04/17 07:32:20;;;;;;;9.13;5.97;;;5.90;99.90;;;7.70;67.27;96908.06;5450063;26;20042;-37
2024/04/17 07:34:49;;;;;;;8.53;6.23;;;5.90;99.90;;;7.76;67.39;96907.41;5448997;26;20043;-37
2024/04/17 07:37:19;;;;;;;7.90;6.23;;;5.90;99.90;;;7.82;67.60;96911.22;5418476;26;20031;-37
2024/04/17 07:39:46;;;;;;;7.50;5.70;;;6.00;99.90;;;7.87;67.31;96914.22;5449579;26;20371;-37
2024/04/17 07:42:14;;;;;;;8.23;5.80;;;6.00;99.90;;;7.91;67.65;96914.72;5417871;26;20006;-38
2024/04/17 07:44:42;;;;;;;9.83;5.63;;;6.10;99.90;;;7.86;67.64;96908.09;5447927;26;20043;-37
2024/04/17 07:47:09;;;;;;;8.03;5.83;;;6.10;99.90;;;7.92;67.63;96919.03;5449436;26;20106;-37
2024/04/17 07:49:37;;;;;;;11.83;6.57;;;6.10;99.90;;;7.77;68.39;96917.00;5449166;26;20030;-37
2024/04/17 07:52:05;;;;;;;8.57;5.90;;;6.10;99.90;;;7.89;68.35;96906.97;5449426;26;20130;-37
2024/04/17 07:54:33;;;;;;;9.40;7.03;;;6.20;99.90;;;7.95;68.16;96913.41;5448831;26;20039;-37
2024/04/17 07:57:01;;;;;;;9.03;6.00;;;6.20;99.90;;;7.98;68.21;96913.09;5449276;26;20040;-37
2024/04/17 07:59:28;;;;;;;9.70;6.07;;;6.30;99.90;;;8.02;68.24;96907.28;5449442;26;20051;-36
2024/04/17 08:01:59;;;;;;;10.93;6.70;;;6.30;99.90;;;8.00;68.13;96916.41;5449385;26;20062;-37
2024/04/17 08:04:27;;;;;;;8.57;6.10;;;6.30;99.90;;;8.01;68.17;96915.44;5448860;26;20051;-37
2024/04/17 08:06:54;;;;;;;10.50;7.90;;;6.30;99.90;;;8.06;68.42;96911.28;5449158;26;20145;-37
2024/04/17 08:09:22;;;;;;;9.93;7.23;;;6.40;99.90;;;8.24;68.35;96924.41;5448730;26;20378;-37
2024/04/17 08:11:50;;;;;;;11.33;7.20;;;6.60;99.90;;;8.22;68.42;96910.47;5417478;26;20095;-37
2024/04/17 08:14:18;;;;;;;10.10;6.93;;;6.60;99.90;;;8.43;67.91;96917.13;5451327;26;20035;-37
2024/04/17 08:16:48;;;;;;;12.40;7.87;;;6.70;99.90;;;8.39;68.06;96913.94;5452217;26;20058;-37
2024/04/17 08:19:16;;;;;;;11.40;7.40;;;6.70;99.90;;;8.42;68.11;96920.81;5452560;26;20432;-38
2024/04/17 08:21:44;;;;;;;9.57;7.03;;;6.70;99.90;;;8.47;67.62;96919.31;5420212;26;20744;-37
2024/04/17 08:24:11;;;;;;;10.63;6.87;;;6.80;99.90;;;8.47;67.63;96929.94;5452316;26;20027;-37
2024/04/17 08:26:39;;;;;;;9.30;7.40;;;6.80;99.90;;;8.42;67.58;96929.59;5451326;26;20030;-37
2024/04/17 08:29:07;;;;;;;10.60;7.10;;;6.70;99.90;;;8.33;67.41;96930.53;5452479;26;20039;-37
2024/04/17 08:31:35;;;;;;;9.13;5.10;;;6.60;99.90;;;8.19;67.27;96931.19;5452260;26;20042;-37
2024/04/17 08:34:03;;;;;;;7.37;3.67;;;6.50;99.90;;;8.11;66.14;96925.88;5451944;26;20034;-37
2024/04/17 08:36:31;;;;;;;6.37;4.27;;;6.30;99.80;;;8.13;66.22;96937.16;5405203;26;20027;-38
2024/04/17 08:38:58;;;;;;;8.00;4.33;;;6.30;99.90;;;8.00;66.51;96941.09;5452176;26;20027;-37
2024/04/17 08:41:30;;;;;;;5.23;3.80;;;6.20;99.90;;;7.82;66.30;96959.75;5452152;26;20042;-37
2024/04/17 08:44:00;;;;;;;;;;;6.10;99.90;;;7.54;66.86;96956.53;5450878;26;20990;-37
2024/04/17 08:46:30;;;;;;;6.93;3.30;;;5.90;99.90;;;7.37;67.75;96944.19;5452083;26;19956;-37
2024/04/17 08:48:59;;;;;;;6.40;4.40;;;5.80;99.90;;;7.55;66.90;96958.16;5420293;26;20034;-38
2024/04/17 08:51:26;;;;;;;6.60;5.87;;;5.90;99.90;;;7.44;67.13;96951.34;5420770;26;20038;-35
2024/04/17 08:53:57;;;;;;;7.83;5.07;;;5.80;99.90;;;7.45;66.94;96954.81;5451239;26;20361;-36
2024/04/17 08:56:26;;;;;;;9.23;4.67;;;5.70;99.90;;;7.31;68.11;96961.53;5417321;26;20498;-36
2024/04/17 08:58:54;;;;;;;7.67;4.53;;;5.70;99.90;;;7.41;67.54;96956.13;5451254;26;20038;-35
2024/04/17 09:01:28;;;;;;;7.17;5.13;;;5.80;99.90;;;7.46;67.51;96967.91;5420354;26;20031;-35
2024/04/17 09:03:56;;;;;;;7.72;5.50;;;5.80;99.90;;;7.51;67.31;96961.31;5420947;26;20467;-35
2024/04/17 09:06:24;;;;;;;8.60;5.83;;;5.80;99.90;;;7.54;67.16;96964.47;5420265;26;20030;-35
2024/04/17 09:08:54;;;;;;;11.50;7.40;;;5.90;99.90;;;7.64;67.48;96959.03;5405493;26;20034;-35
2024/04/17 09:11:24;;;;;;;11.63;7.67;;;6.00;99.90;;;7.67;67.64;96964.81;5434112;26;20036;-35
2024/04/17 09:13:51;;;;;;;12.30;8.17;;;6.10;99.90;;;7.64;67.47;96967.81;5419445;26;20094;-35
2024/04/17 09:16:19;;;;;;;11.13;8.43;;;6.00;99.90;;;7.62;67.82;96963.66;5449800;26;20039;-35
2024/04/17 09:18:48;;;;;;;10.07;7.30;;;5.90;99.90;;;7.49;68.31;96964.09;5450274;26;20357;-35
2024/04/17 09:21:17;;;;;;;13.27;10.37;;;5.90;99.90;;;7.61;68.18;96969.94;5451763;26;20034;-35
2024/04/17 09:23:44;;;;;;;13.47;8.60;;;6.00;99.90;;;7.72;67.92;96968.84;5419245;26;20111;-35
2024/04/17 09:26:17;;;;;;;11.83;7.90;;;6.10;99.90;;;7.82;67.82;96970.34;5450312;26;20035;-35
2024/04/17 09:28:45;;;;;;;12.93;11.07;;;6.10;99.90;;;7.77;68.05;96972.66;5451218;26;20050;-35
2024/04/17 09:31:13;;;;;;;11.77;9.13;;;6.10;99.90;;;7.86;68.04;96966.41;5451840;26;20043;-35
2024/04/17 09:33:47;;;;;;;14.17;8.40;;;6.20;99.90;;;7.93;68.24;96966.59;5449190;26;20382;-35
2024/04/17 09:36:15;;;;;;;14.20;8.67;;;6.30;99.90;;;7.93;68.30;96971.91;5450959;26;20034;-35
2024/04/17 09:38:42;;;;;;;14.73;8.77;;;6.30;99.90;;;7.88;68.43;96972.34;5451125;26;20493;-35
2024/04/17 09:41:11;;;;;;;16.20;8.80;;;6.30;99.90;;;7.89;68.14;96963.44;5419981;26;20393;-35
2024/04/17 09:43:45;;;;;;;12.23;7.93;;;6.30;99.90;;;7.89;68.25;96963.44;5449373;26;20347;-35
2024/04/17 09:46:16;;;;;;;11.33;9.13;;;6.30;99.90;;;7.87;68.00;96972.50;5420356;26;20381;-35
2024/04/17 09:48:49;;;;;;;11.33;8.83;;;6.30;99.90;;;7.84;68.25;96968.38;5450040;26;20576;-35
2024/04/17 09:51:21;;;;;;;11.60;7.93;;;6.20;99.90;;;8.08;67.66;96966.78;5419475;26;20031;-35
2024/04/17 09:54:01;;;;;;;11.00;8.17;;;6.40;99.90;;;8.18;67.65;96964.84;5417564;26;20793;-35
2024/04/17 09:56:30;;;;;;;12.07;8.23;;;6.50;99.90;;;8.27;67.68;96955.06;5450630;26;20039;-35
2024/04/17 09:58:59;;;;;;;15.67;8.00;;;6.60;99.90;;;8.35;67.68;96960.38;5404962;26;20035;-35
2024/04/17 10:01:39;;;;;;;12.63;7.40;;;6.70;99.90;;;8.28;67.33;96962.84;5420605;26;20034;-35
2024/04/17 10:04:09;;;;;;;11.77;8.37;;;6.70;99.90;;;8.50;67.25;96963.25;5450488;26;20046;-35
2024/04/17 10:06:42;;;;;;;;;;;6.80;99.90;;;8.47;67.10;96956.44;5451883;26;20031;-35
2024/04/17 10:09:13;;;;;;;15.47;8.07;;;6.90;99.90;;;8.68;66.70;96957.78;5418467;26;19956;-35
2024/04/17 10:11:41;;;;;;;10.20;7.87;;;7.00;99.90;;;8.74;66.76;96959.75;5403880;26;20038;-35
2024/04/17 10:14:12;;;;;;;15.80;8.67;;;7.10;99.90;;;8.78;66.39;96953.16;5450128;26;20035;-35
2024/04/17 10:16:41;;;;;;;12.27;8.43;;;7.10;99.90;;;8.94;66.42;96954.13;5432523;26;20038;-35
2024/04/17 10:19:09;;;;;;;15.10;8.27;;;7.20;99.90;;;8.85;65.58;96956.78;5419296;26;20039;-35
2024/04/17 10:21:37;;;;;;;11.33;8.20;;;7.30;99.10;;;9.02;65.61;96956.78;5450833;26;20039;-35
2024/04/17 10:24:12;;;;;;;14.57;9.27;;;7.40;99.90;;;8.97;64.50;96967.88;5450254;26;20035;-35
2024/04/17 10:26:50;;;;;;;9.10;7.40;;;7.30;93.90;;;8.84;64.47;96960.44;5419256;26;20062;-36
2024/04/17 10:29:27;;;;;;;10.57;6.17;;;7.20;95.90;;;8.74;63.35;96964.25;5433093;26;20039;-35
2024/04/17 10:32:09;;;;;;;7.97;7.17;;;7.20;92.90;;;8.94;64.04;96954.13;5450834;26;20042;-35
2024/04/17 10:34:52;;;;;;;12.60;7.30;;;7.20;95.30;;;9.02;64.01;96956.78;5450336;26;20466;-33
2024/04/17 10:37:21;;;;;;;8.43;6.67;;;7.30;95.80;;;8.99;63.98;96957.09;5450361;26;20034;-36